createdAt,value
2017-07-16T00:01:43.031Z,15.50
2017-07-16T00:04:09.021Z,15.60
2017-07-16T00:06:34.974Z,15.60
2017-07-16T00:09:01.686Z,15.70
2017-07-16T00:11:28.434Z,15.60
2017-07-16T00:13:54.386Z,15.60
2017-07-16T00:16:20.359Z,15.60
2017-07-16T00:18:46.376Z,15.60
2017-07-16T00:21:12.327Z,15.60
2017-07-16T00:23:38.279Z,15.60
2017-07-16T00:26:04.310Z,15.60
2017-07-16T00:28:30.258Z,15.60
2017-07-16T00:30:56.222Z,15.60
2017-07-16T00:33:37.219Z,15.60
2017-07-16T00:36:03.175Z,15.60
2017-07-16T00:38:29.123Z,15.60
2017-07-16T00:40:55.142Z,15.60
2017-07-16T00:43:21.137Z,15.60
2017-07-16T00:45:47.091Z,15.60
2017-07-16T00:48:13.828Z,15.50
2017-07-16T00:50:39.783Z,15.50
2017-07-16T00:53:05.731Z,15.50
2017-07-16T00:55:32.466Z,15.50
2017-07-16T00:57:58.423Z,15.50
2017-07-16T01:00:24.391Z,15.50
2017-07-16T01:02:50.404Z,15.50
2017-07-16T01:05:16.359Z,15.50
2017-07-16T01:07:42.307Z,15.50
2017-07-16T01:10:09.142Z,15.50
2017-07-16T01:12:35.086Z,15.50
2017-07-16T01:15:01.035Z,15.50
2017-07-16T01:17:27.758Z,15.40
2017-07-16T01:19:54.469Z,15.40
2017-07-16T01:22:20.499Z,15.40
2017-07-16T01:24:47.193Z,15.30
2017-07-16T01:27:13.195Z,15.30
2017-07-16T01:29:39.183Z,15.30
2017-07-16T01:32:05.174Z,15.30
2017-07-16T01:34:31.118Z,15.40
2017-07-16T01:36:57.066Z,15.30
2017-07-16T01:39:23.802Z,15.30
2017-07-16T01:41:49.754Z,15.20
2017-07-16T01:44:15.734Z,15.20
2017-07-16T01:46:41.746Z,15.10
2017-07-16T01:49:07.713Z,15.10
2017-07-16T01:51:34.419Z,15.10
2017-07-16T01:54:00.417Z,15.10
2017-07-16T01:56:26.347Z,15.10
2017-07-16T01:58:52.313Z,15.10
2017-07-16T02:01:18.289Z,15.00
2017-07-16T02:03:44.971Z,14.90
2017-07-16T02:06:10.965Z,14.90
2017-07-16T02:08:36.931Z,14.90
2017-07-16T02:11:03.619Z,14.80
2017-07-16T02:13:29.602Z,14.80
2017-07-16T02:15:55.555Z,14.80
2017-07-16T02:18:21.559Z,14.70
2017-07-16T02:20:48.493Z,14.60
2017-07-16T02:23:14.437Z,14.60
2017-07-16T02:25:40.434Z,14.70
2017-07-16T02:28:06.377Z,14.70
2017-07-16T02:30:32.357Z,14.60
2017-07-16T02:32:58.347Z,14.50
2017-07-16T02:35:25.057Z,14.50
2017-07-16T02:37:51.791Z,14.50
2017-07-16T02:40:18.513Z,14.40
2017-07-16T02:42:45.248Z,14.30
2017-07-16T02:45:11.929Z,14.30
2017-07-16T02:47:37.877Z,14.30
2017-07-16T02:50:04.616Z,14.20
2017-07-16T02:52:30.567Z,14.20
2017-07-16T02:54:56.542Z,14.30
2017-07-16T02:57:22.551Z,14.20
2017-07-16T02:59:48.531Z,14.10
2017-07-16T03:02:15.270Z,14.00
2017-07-16T03:04:42.004Z,13.90
2017-07-16T03:07:07.958Z,13.90
2017-07-16T03:09:33.906Z,13.90
2017-07-16T03:12:00.622Z,13.90
2017-07-16T03:14:27.363Z,13.80
2017-07-16T03:16:53.318Z,13.80
2017-07-16T03:19:19.266Z,13.80
2017-07-16T03:21:46.007Z,13.80
2017-07-16T03:24:11.950Z,13.80
2017-07-16T03:26:37.890Z,13.80
2017-07-16T03:29:03.868Z,13.80
2017-07-16T03:31:29.862Z,13.70
2017-07-16T03:33:55.821Z,13.70
2017-07-16T03:36:21.780Z,13.70
2017-07-16T03:38:47.768Z,13.70
2017-07-16T03:41:13.713Z,13.60
2017-07-16T03:43:39.713Z,13.60
2017-07-16T03:46:05.682Z,13.60
2017-07-16T03:48:31.627Z,13.60
2017-07-16T03:50:57.614Z,13.60
2017-07-16T03:53:23.576Z,13.60
2017-07-16T03:55:49.534Z,13.60
2017-07-16T03:58:15.584Z,13.60
2017-07-16T04:00:41.561Z,13.50
2017-07-16T04:03:07.566Z,13.60
2017-07-16T04:05:33.516Z,13.60
2017-07-16T04:07:59.465Z,13.60
2017-07-16T04:10:25.463Z,13.60
2017-07-16T04:12:51.451Z,13.60
2017-07-16T04:15:17.405Z,13.60
2017-07-16T04:17:43.389Z,13.60
2017-07-16T04:20:10.074Z,13.60
2017-07-16T04:22:36.017Z,13.60
2017-07-16T04:25:02.761Z,13.70
2017-07-16T04:27:28.702Z,13.60
2017-07-16T04:29:54.704Z,13.70
2017-07-16T04:32:20.678Z,13.70
2017-07-16T04:34:46.632Z,13.70
2017-07-16T04:37:12.618Z,13.70
2017-07-16T04:39:38.567Z,13.80
2017-07-16T04:42:04.517Z,13.80
2017-07-16T04:44:30.491Z,13.90
2017-07-16T04:46:56.442Z,13.90
2017-07-16T04:49:22.476Z,14.00
2017-07-16T04:51:48.439Z,14.00
2017-07-16T04:54:15.134Z,14.10
2017-07-16T04:56:41.118Z,14.00
2017-07-16T04:59:07.066Z,14.00
2017-07-16T05:01:33.032Z,14.10
2017-07-16T05:03:59.018Z,14.10
2017-07-16T05:06:24.970Z,14.20
2017-07-16T05:08:50.943Z,14.20
2017-07-16T05:11:16.942Z,14.20
2017-07-16T05:13:42.901Z,14.30
2017-07-16T05:16:08.875Z,14.30
2017-07-16T05:18:34.871Z,14.40
2017-07-16T05:21:00.861Z,14.40
2017-07-16T05:23:27.546Z,14.50
2017-07-16T05:25:53.523Z,14.40
2017-07-16T05:28:19.531Z,14.50
2017-07-16T05:30:45.490Z,14.50
2017-07-16T05:33:11.468Z,14.50
2017-07-16T05:35:37.449Z,14.60
2017-07-16T05:38:03.394Z,14.60
2017-07-16T05:40:29.414Z,14.70
2017-07-16T05:42:55.374Z,14.70
2017-07-16T05:45:21.350Z,14.70
2017-07-16T05:47:48.093Z,14.80
2017-07-16T05:50:20.233Z,14.80
2017-07-16T05:52:46.963Z,14.80
2017-07-16T05:55:13.683Z,14.80
2017-07-16T05:57:40.385Z,14.90
2017-07-16T06:00:06.395Z,14.90
2017-07-16T06:02:32.349Z,14.90
2017-07-16T06:04:58.301Z,15.00
2017-07-16T06:07:24.326Z,15.00
2017-07-16T06:09:50.292Z,15.00
2017-07-16T06:12:16.240Z,15.10
2017-07-16T06:14:42.238Z,15.20
2017-07-16T06:17:08.366Z,15.30
2017-07-16T06:19:34.343Z,15.30
2017-07-16T06:22:00.335Z,15.40
2017-07-16T06:24:26.279Z,15.50
2017-07-16T06:26:52.242Z,15.60
2017-07-16T06:29:18.234Z,15.60
2017-07-16T06:31:44.185Z,15.70
2017-07-16T06:34:10.133Z,15.70
2017-07-16T06:36:36.858Z,15.80
2017-07-16T06:39:03.547Z,15.90
2017-07-16T06:41:29.507Z,15.90
2017-07-16T06:43:55.511Z,16.00
2017-07-16T06:46:21.475Z,16.00
2017-07-16T06:48:47.426Z,16.10
2017-07-16T06:51:13.418Z,16.20
2017-07-16T06:53:40.102Z,16.30
2017-07-16T06:56:06.046Z,16.30
2017-07-16T06:58:32.065Z,16.40
2017-07-16T07:00:58.814Z,16.50
2017-07-16T07:03:24.791Z,16.50
2017-07-16T07:05:51.538Z,16.50
2017-07-16T07:08:17.497Z,16.50
2017-07-16T07:10:43.487Z,16.60
2017-07-16T07:13:09.482Z,16.60
2017-07-16T07:15:35.434Z,16.70
2017-07-16T07:18:01.377Z,16.80
2017-07-16T07:20:27.407Z,16.90
2017-07-16T07:22:53.415Z,17.00
2017-07-16T07:25:19.362Z,17.10
2017-07-16T07:27:45.306Z,17.10
2017-07-16T07:30:12.034Z,17.20
2017-07-16T07:32:38.726Z,17.30
2017-07-16T07:35:04.674Z,17.20
2017-07-16T07:37:30.655Z,17.30
2017-07-16T07:39:56.643Z,17.40
2017-07-16T07:42:22.643Z,17.40
2017-07-16T07:44:48.635Z,17.50
2017-07-16T07:47:14.584Z,17.60
2017-07-16T07:49:40.531Z,17.70
2017-07-16T07:52:06.945Z,17.70
2017-07-16T07:54:32.931Z,17.80
2017-07-16T07:56:59.671Z,18.00
2017-07-16T07:59:26.402Z,18.00
2017-07-16T08:01:52.395Z,18.10
2017-07-16T08:04:19.139Z,18.20
2017-07-16T08:06:45.139Z,18.20
2017-07-16T08:09:11.874Z,18.50
2017-07-16T08:11:37.786Z,18.40
2017-07-16T08:14:03.774Z,18.60
2017-07-16T08:16:30.457Z,18.70
2017-07-16T08:18:56.415Z,18.60
2017-07-16T08:21:22.436Z,18.80
2017-07-16T08:23:48.390Z,18.90
2017-07-16T08:26:14.334Z,18.90
2017-07-16T08:31:13.778Z,19.00
2017-07-16T08:33:39.761Z,19.20
2017-07-16T08:36:05.721Z,19.30
2017-07-16T08:38:31.674Z,19.30
2017-07-16T08:40:57.678Z,19.40
2017-07-16T08:43:23.640Z,19.40
2017-07-16T08:45:49.674Z,19.40
2017-07-16T08:48:16.431Z,19.50
2017-07-16T08:50:42.390Z,19.40
2017-07-16T08:53:08.342Z,19.60
2017-07-16T08:55:34.354Z,19.70
2017-07-16T08:58:00.306Z,19.80
2017-07-16T09:00:26.253Z,20.00
2017-07-16T09:02:52.323Z,20.00
2017-07-16T09:05:18.282Z,20.20
2017-07-16T09:07:44.228Z,20.20
2017-07-16T09:10:10.215Z,20.30
2017-07-16T09:12:36.170Z,20.50
2017-07-16T09:15:02.158Z,20.60
2017-07-16T09:17:28.118Z,20.60
2017-07-16T09:19:54.074Z,20.60
2017-07-16T09:22:20.055Z,20.80
2017-07-16T09:24:46.004Z,21.00
2017-07-16T09:27:12.007Z,21.10
2017-07-16T09:29:37.958Z,21.10
2017-07-16T09:32:03.910Z,21.00
2017-07-16T09:34:29.902Z,21.10
2017-07-16T09:36:55.879Z,21.00
2017-07-16T09:39:21.859Z,21.00
2017-07-16T09:41:47.839Z,21.10
2017-07-16T09:44:13.823Z,21.10
2017-07-16T09:46:39.775Z,21.10
2017-07-16T09:49:05.835Z,21.30
2017-07-16T09:51:31.789Z,21.30
2017-07-16T09:53:57.771Z,21.40
2017-07-16T09:56:23.787Z,21.30
2017-07-16T09:58:49.743Z,21.30
2017-07-16T10:01:16.440Z,21.30
2017-07-16T10:03:42.457Z,21.30
2017-07-16T10:06:08.427Z,21.50
2017-07-16T10:08:34.424Z,21.60
2017-07-16T10:11:00.382Z,21.60
2017-07-16T10:13:26.331Z,21.70
2017-07-16T10:15:52.351Z,21.70
2017-07-16T10:18:18.301Z,21.80
2017-07-16T10:20:44.263Z,21.80
2017-07-16T10:23:10.263Z,21.70
2017-07-16T10:25:36.214Z,21.70
2017-07-16T10:28:02.163Z,21.80
2017-07-16T10:30:28.153Z,21.90
2017-07-16T10:32:54.930Z,21.90
2017-07-16T10:35:20.895Z,21.90
2017-07-16T10:37:47.591Z,21.80
2017-07-16T10:40:13.579Z,21.70
2017-07-16T10:42:39.530Z,21.70
2017-07-16T10:45:05.534Z,21.90
2017-07-16T10:47:31.485Z,21.80
2017-07-16T10:49:57.441Z,21.80
2017-07-16T10:52:23.440Z,22.00
2017-07-16T10:54:49.427Z,22.10
2017-07-16T10:57:15.417Z,22.00
2017-07-16T10:59:41.368Z,21.90
2017-07-16T11:02:07.313Z,22.00
2017-07-16T11:04:34.038Z,22.40
2017-07-16T11:07:00.752Z,22.60
2017-07-16T11:09:27.446Z,22.80
2017-07-16T11:11:53.455Z,22.80
2017-07-16T11:14:19.426Z,22.90
2017-07-16T11:16:45.386Z,23.00
2017-07-16T11:19:11.361Z,23.00
2017-07-16T11:21:37.331Z,23.30
2017-07-16T11:24:03.314Z,23.40
2017-07-16T11:26:29.271Z,23.60
2017-07-16T11:28:55.336Z,23.70
2017-07-16T11:31:21.313Z,23.70
2017-07-16T11:33:47.263Z,24.10
2017-07-16T11:36:13.998Z,24.20
2017-07-16T11:38:39.954Z,24.10
2017-07-16T11:41:05.938Z,24.50
2017-07-16T11:43:31.938Z,24.80
2017-07-16T11:45:57.889Z,24.80
2017-07-16T11:48:23.890Z,25.00
2017-07-16T11:50:50.022Z,25.30
2017-07-16T11:53:16.003Z,25.40
2017-07-16T11:55:42.007Z,25.50
2017-07-16T11:58:07.969Z,25.20
2017-07-16T12:00:33.931Z,24.80
2017-07-16T12:02:59.919Z,24.90
2017-07-16T12:05:25.890Z,25.10
2017-07-16T12:07:51.922Z,25.30
2017-07-16T12:10:17.934Z,25.70
2017-07-16T12:12:43.891Z,25.20
2017-07-16T12:15:09.859Z,25.20
2017-07-16T12:17:35.850Z,25.60
2017-07-16T12:20:01.801Z,25.80
2017-07-16T12:22:27.766Z,25.70
2017-07-16T12:24:53.779Z,25.90
2017-07-16T12:27:19.729Z,25.90
2017-07-16T12:29:45.678Z,25.40
2017-07-16T12:32:11.680Z,25.30
2017-07-16T12:34:37.667Z,25.60
2017-07-16T12:37:03.627Z,25.60
2017-07-16T12:39:29.627Z,25.20
2017-07-16T12:41:55.582Z,25.20
2017-07-16T12:44:21.567Z,25.00
2017-07-16T12:46:47.587Z,25.30
2017-07-16T12:49:13.583Z,25.60
2017-07-16T12:51:39.542Z,25.90
2017-07-16T12:54:05.522Z,26.10
2017-07-16T12:56:31.505Z,26.30
2017-07-16T12:58:57.535Z,25.90
2017-07-16T13:01:23.487Z,25.90
2017-07-16T13:03:49.429Z,25.90
2017-07-16T13:06:16.191Z,26.30
2017-07-16T13:08:42.182Z,26.20
2017-07-16T13:11:08.186Z,26.20
2017-07-16T13:13:34.133Z,25.90
2017-07-16T13:16:00.126Z,26.10
2017-07-16T13:18:26.107Z,26.30
2017-07-16T13:20:52.059Z,26.50
2017-07-16T13:23:18.054Z,26.00
2017-07-16T13:25:44.026Z,26.50
2017-07-16T13:28:10.029Z,26.30
2017-07-16T13:30:36.729Z,26.30
2017-07-16T13:33:02.687Z,26.30
2017-07-16T13:35:28.685Z,26.20
2017-07-16T13:37:54.635Z,26.40
2017-07-16T13:40:20.583Z,26.20
2017-07-16T13:42:47.379Z,25.50
2017-07-16T13:45:13.386Z,25.50
2017-07-16T13:47:39.363Z,25.50
2017-07-16T13:50:05.315Z,25.50
2017-07-16T13:52:31.311Z,25.40
2017-07-16T13:54:57.267Z,25.60
2017-07-16T13:57:23.215Z,25.60
2017-07-16T13:59:49.214Z,25.50
2017-07-16T14:02:15.187Z,25.30
2017-07-16T14:04:41.152Z,25.20
2017-07-16T14:07:07.166Z,25.10
2017-07-16T14:09:33.123Z,25.00
2017-07-16T14:11:59.075Z,24.80
2017-07-16T14:14:25.058Z,24.70
2017-07-16T14:16:52.526Z,24.80
2017-07-16T14:19:18.523Z,24.80
2017-07-16T14:21:44.524Z,25.00
2017-07-16T14:24:10.510Z,24.90
2017-07-16T14:26:36.502Z,24.80
2017-07-16T14:29:02.446Z,24.90
2017-07-16T14:31:28.394Z,24.90
2017-07-16T14:33:54.396Z,25.00
2017-07-16T14:36:20.346Z,24.80
2017-07-16T14:38:46.304Z,24.80
2017-07-16T14:41:12.305Z,24.80
2017-07-16T14:43:38.258Z,24.80
2017-07-16T14:46:04.950Z,25.20
2017-07-16T14:48:30.944Z,25.20
2017-07-16T14:50:56.895Z,25.10
2017-07-16T14:53:23.594Z,25.70
2017-07-16T14:55:49.594Z,25.70
2017-07-16T14:58:15.551Z,25.80
2017-07-16T15:00:41.515Z,26.20
2017-07-16T15:03:07.495Z,27.00
2017-07-16T15:05:33.511Z,27.30
2017-07-16T15:07:59.463Z,27.60
2017-07-16T15:10:26.204Z,27.90
2017-07-16T15:12:52.218Z,27.80
2017-07-16T15:15:18.252Z,27.50
2017-07-16T15:17:45.026Z,27.30
2017-07-16T15:20:11.016Z,27.20
2017-07-16T15:22:37.022Z,26.90
2017-07-16T15:25:02.991Z,26.40
2017-07-16T15:27:28.947Z,25.90
2017-07-16T15:29:54.955Z,25.60
2017-07-16T15:32:20.911Z,25.60
2017-07-16T15:34:46.873Z,25.60
2017-07-16T15:37:12.867Z,25.60
2017-07-16T15:39:38.816Z,25.60
2017-07-16T15:42:05.551Z,25.70
2017-07-16T15:44:31.530Z,25.70
2017-07-16T15:46:57.489Z,25.50
2017-07-16T15:49:23.439Z,25.40
2017-07-16T15:51:49.432Z,25.30
2017-07-16T15:54:15.467Z,25.40
2017-07-16T15:56:41.419Z,25.40
2017-07-16T15:59:07.378Z,25.20
2017-07-16T16:01:33.389Z,25.00
2017-07-16T16:03:59.340Z,24.80
2017-07-16T16:06:25.289Z,24.60
2017-07-16T16:08:51.381Z,24.40
2017-07-16T16:11:17.387Z,24.40
2017-07-16T16:13:43.373Z,24.50
2017-07-16T16:16:09.360Z,24.30
2017-07-16T16:18:35.906Z,24.20
2017-07-16T16:21:01.863Z,24.30
2017-07-16T16:23:27.821Z,24.20
2017-07-16T16:25:54.242Z,24.20
2017-07-16T16:28:20.779Z,24.20
2017-07-16T16:30:46.766Z,24.20
2017-07-16T16:33:12.791Z,24.20
2017-07-16T16:35:39.367Z,24.20
2017-07-16T16:38:05.330Z,24.10
2017-07-16T16:40:31.894Z,24.10
2017-07-16T16:42:58.397Z,24.10
2017-07-16T16:45:24.383Z,24.00
2017-07-16T16:47:50.331Z,24.10
2017-07-16T16:50:16.344Z,24.10
2017-07-16T16:52:42.313Z,23.80
2017-07-16T16:55:08.266Z,23.60
2017-07-16T16:57:35.015Z,23.60
2017-07-16T17:00:01.603Z,23.60
2017-07-16T17:02:27.739Z,23.50
2017-07-16T17:04:53.835Z,23.60
2017-07-16T17:07:20.586Z,23.80
2017-07-16T17:09:46.751Z,23.70
2017-07-16T17:12:12.786Z,23.70
2017-07-16T17:14:39.486Z,23.80
2017-07-16T17:17:05.445Z,23.80
2017-07-16T17:19:31.434Z,23.80
2017-07-16T17:21:57.387Z,23.90
2017-07-16T17:24:23.426Z,23.70
2017-07-16T17:26:49.374Z,23.60
2017-07-16T17:29:15.625Z,23.60
2017-07-16T17:31:41.650Z,23.70
2017-07-16T17:34:07.662Z,23.70
2017-07-16T17:36:41.765Z,23.60
2017-07-16T17:39:11.763Z,23.70
2017-07-16T17:41:38.574Z,23.60
2017-07-16T17:44:07.468Z,23.50
2017-07-16T17:46:38.468Z,23.50
2017-07-16T17:49:05.342Z,23.30
2017-07-16T17:51:31.596Z,23.30
2017-07-16T17:53:57.598Z,23.40
2017-07-16T17:56:23.552Z,23.30
2017-07-16T17:58:49.532Z,23.30
2017-07-16T18:01:15.571Z,23.50
2017-07-16T18:03:41.920Z,23.40
2017-07-16T18:06:08.648Z,23.40
2017-07-16T18:08:34.653Z,23.30
2017-07-16T18:11:00.602Z,23.40
2017-07-16T18:13:26.603Z,23.40
2017-07-16T18:15:53.119Z,23.40
2017-07-16T18:18:19.085Z,23.40
2017-07-16T18:20:45.099Z,23.40
2017-07-16T18:23:11.982Z,23.30
2017-07-16T18:25:37.944Z,23.30
2017-07-16T18:28:04.672Z,23.30
2017-07-16T18:30:31.664Z,23.20
2017-07-16T18:32:57.615Z,23.20
2017-07-16T18:35:24.395Z,23.20
2017-07-16T18:37:50.346Z,23.20
2017-07-16T18:40:17.054Z,23.20
2017-07-16T18:42:43.093Z,23.20
2017-07-16T18:45:09.051Z,23.10
2017-07-16T18:47:35.085Z,23.00
2017-07-16T18:50:01.034Z,23.00
2017-07-16T18:52:28.445Z,22.90
2017-07-16T18:54:54.695Z,22.70
2017-07-16T18:57:20.701Z,22.70
2017-07-16T18:59:46.859Z,22.70
2017-07-16T19:02:12.875Z,22.70
2017-07-16T19:04:38.973Z,22.60
2017-07-16T19:07:04.926Z,22.60
2017-07-16T19:09:30.969Z,22.40
2017-07-16T19:11:56.924Z,22.50
2017-07-16T19:14:23.658Z,22.50
2017-07-16T19:16:50.393Z,22.50
2017-07-16T19:19:16.379Z,22.50
2017-07-16T19:21:42.463Z,22.40
2017-07-16T19:24:08.430Z,22.30
2017-07-16T19:26:34.385Z,22.10
2017-07-16T19:29:00.370Z,22.00
2017-07-16T19:31:26.334Z,22.10
2017-07-16T19:33:52.353Z,22.20
2017-07-16T19:36:18.387Z,22.30
2017-07-16T19:38:44.354Z,22.30
2017-07-16T19:41:10.338Z,22.30
2017-07-16T19:43:36.331Z,22.30
2017-07-16T19:46:02.295Z,22.30
2017-07-16T19:48:28.259Z,22.30
2017-07-16T19:50:54.280Z,22.30
2017-07-16T19:53:20.298Z,22.20
2017-07-16T19:55:46.254Z,22.20
2017-07-16T19:58:12.246Z,22.20
2017-07-16T20:00:38.947Z,22.30
2017-07-16T20:03:04.898Z,22.20
2017-07-16T20:05:30.883Z,22.20
2017-07-16T20:07:56.835Z,22.10
2017-07-16T20:10:22.862Z,22.10
2017-07-16T20:12:48.923Z,22.00
2017-07-16T20:15:14.887Z,21.90
2017-07-16T20:17:40.874Z,22.00
2017-07-16T20:20:06.822Z,21.90
2017-07-16T20:22:32.819Z,22.00
2017-07-16T20:24:58.778Z,21.90
2017-07-16T20:27:24.739Z,21.90
2017-07-16T20:29:51.015Z,21.90
2017-07-16T20:32:16.963Z,21.90
2017-07-16T20:34:42.923Z,21.80
2017-07-16T20:37:08.909Z,21.70
2017-07-16T20:39:34.864Z,21.70
2017-07-16T20:42:01.615Z,21.70
2017-07-16T20:44:27.563Z,21.60
2017-07-16T20:46:53.528Z,21.80
2017-07-16T20:49:19.527Z,21.70
2017-07-16T20:51:46.217Z,21.70
2017-07-16T20:54:12.178Z,21.70
2017-07-16T20:56:38.202Z,21.70
2017-07-16T20:59:04.187Z,21.70
2017-07-16T21:01:30.215Z,21.70
2017-07-16T21:03:56.202Z,21.80
2017-07-16T21:06:22.571Z,21.80
2017-07-16T21:08:48.534Z,21.80
2017-07-16T21:11:14.531Z,21.70
2017-07-16T21:13:41.259Z,21.50
2017-07-16T21:16:07.943Z,21.40
2017-07-16T21:18:33.934Z,21.40
2017-07-16T21:20:59.946Z,21.30
2017-07-16T21:23:25.890Z,21.30
2017-07-16T21:25:51.889Z,21.30
2017-07-16T21:28:17.837Z,21.20
2017-07-16T21:30:43.793Z,21.20
2017-07-16T21:33:09.827Z,21.30
2017-07-16T21:35:35.807Z,21.30
2017-07-16T21:38:01.754Z,21.40
2017-07-16T21:40:28.487Z,21.40
2017-07-16T21:42:55.174Z,21.40
2017-07-16T21:45:21.146Z,21.40
2017-07-16T21:47:47.135Z,21.40
2017-07-16T21:50:13.086Z,21.30
2017-07-16T21:52:39.105Z,21.30
2017-07-16T21:55:05.050Z,21.30
2017-07-16T21:57:31.739Z,21.40
2017-07-16T21:59:57.757Z,21.40
2017-07-16T22:02:23.748Z,21.40
2017-07-16T22:04:49.761Z,21.50
2017-07-16T22:07:15.751Z,21.40
2017-07-16T22:09:41.723Z,21.40
2017-07-16T22:12:08.452Z,21.40
2017-07-16T22:14:34.403Z,21.40
2017-07-16T22:17:00.394Z,21.40
2017-07-16T22:19:26.387Z,21.40
2017-07-16T22:21:52.341Z,21.50
2017-07-16T22:24:18.329Z,21.50
2017-07-16T22:26:44.322Z,21.40
2017-07-16T22:29:10.270Z,21.40
2017-07-16T22:31:36.227Z,21.40
2017-07-16T22:34:02.946Z,21.20
2017-07-16T22:36:28.896Z,21.20
2017-07-16T22:38:54.889Z,21.20
2017-07-16T22:41:20.842Z,21.10
2017-07-16T22:43:46.806Z,21.10
2017-07-16T22:46:12.794Z,21.10
2017-07-16T22:48:38.742Z,21.10
2017-07-16T22:51:04.723Z,21.10
2017-07-16T22:53:30.670Z,21.20
2017-07-16T22:55:56.657Z,21.20
2017-07-16T22:58:22.711Z,21.20
2017-07-16T23:00:48.674Z,21.30
2017-07-16T23:03:14.619Z,21.20
2017-07-16T23:05:40.624Z,21.20
2017-07-16T23:08:06.574Z,21.20
2017-07-16T23:10:33.297Z,21.20
2017-07-16T23:12:59.287Z,21.20
2017-07-16T23:15:25.275Z,21.20
2017-07-16T23:17:51.237Z,21.20
2017-07-16T23:20:17.988Z,21.10
2017-07-16T23:22:43.938Z,21.10
2017-07-16T23:25:09.889Z,21.10
2017-07-16T23:27:35.895Z,21.10
2017-07-16T23:30:01.845Z,21.10
2017-07-16T23:32:27.786Z,21.20
2017-07-16T23:34:53.780Z,21.30
2017-07-16T23:37:19.764Z,21.20
2017-07-16T23:39:45.779Z,21.10
2017-07-16T23:42:11.730Z,21.10
2017-07-16T23:44:38.417Z,21.00
2017-07-16T23:47:04.418Z,21.00
2017-07-16T23:49:30.366Z,21.00
2017-07-16T23:51:56.310Z,20.90
2017-07-16T23:54:22.305Z,20.90
2017-07-16T23:56:48.282Z,20.90
2017-07-16T23:59:14.229Z,20.90
